Time;durP1;ratioP1;P1;durP2;ratioP2;P2;SDS_P1;SDS_P2;PMS_P1;PMS_P2;Temp;Humidity;BMP_temperature;BMP_pressure;BME280_temperature;BME280_humidity;BME280_pressure;Samples;Min_cycle;Max_cycle;Signal;HPM_P1;HPM_P2
2022/09/11 00:00:04;;;;;;;460.38;414.85;;;;;;;24.67;70.67;99204.28;305065;32;1384;-77
2022/09/11 00:00:14;;;;;;;465.40;419.85;;;;;;;24.66;70.69;99207.13;297688;32;2939;-76
2022/09/11 00:00:25;;;;;;;471.37;425.60;;;;;;;24.64;70.61;99209.13;297426;32;4359;-76
2022/09/11 00:00:35;;;;;;;467.38;421.80;;;;;;;24.64;70.54;99209.97;301096;32;897;-77
2022/09/11 00:00:47;;;;;;;465.50;420.00;;;;;;;24.64;70.56;99207.28;295740;32;4671;-77
2022/09/11 00:00:58;;;;;;;456.00;410.67;;;;;;;24.64;70.38;99204.63;293321;33;6297;-77
2022/09/11 00:01:10;;;;;;;457.27;411.98;;;;;;;24.65;70.64;99206.28;290149;33;6493;-77
2022/09/11 00:01:21;;;;;;;462.52;417.10;;;;;;;24.65;70.69;99211.66;291152;34;914;-77
2022/09/11 00:01:32;;;;;;;467.48;422.02;;;;;;;24.66;70.67;99204.47;290800;34;2902;-76
2022/09/11 00:01:42;;;;;;;466.83;421.38;;;;;;;24.65;70.75;99208.97;290076;33;5752;-76
2022/09/11 00:01:53;;;;;;;467.88;422.23;;;;;;;24.64;70.70;99209.97;286053;34;6634;-76
2022/09/11 00:02:03;;;;;;;470.50;424.83;;;;;;;24.65;70.97;99210.81;283992;34;852;-76
2022/09/11 00:02:16;;;;;;;479.42;433.63;;;;;;;24.63;70.82;99210.97;283080;34;5425;-77
2022/09/11 00:02:26;;;;;;;478.88;433.00;;;;;;;24.63;70.62;99208.28;283534;34;4086;-77
2022/09/11 00:02:37;;;;;;;475.58;429.60;;;;;;;24.62;70.80;99209.28;282206;34;6287;-77
2022/09/11 00:02:47;;;;;;;467.03;421.33;;;;;;;24.62;70.88;99211.97;283558;34;1330;-77
2022/09/11 00:02:58;;;;;;;459.65;414.05;;;;;;;24.62;70.92;99206.63;282530;34;6781;-77
2022/09/11 00:03:08;;;;;;;461.50;415.93;;;;;;;24.63;70.98;99204.78;280784;34;8355;-77
2022/09/11 00:03:23;;;;;;;465.85;420.15;;;;;;;24.65;70.72;99210.81;280898;35;914;-76
2022/09/11 00:03:34;;;;;;;467.35;421.83;;;;;;;24.65;70.66;99206.28;280711;35;1355;-77
2022/09/11 00:03:45;;;;;;;461.07;415.83;;;;;;;24.65;70.64;99203.63;276372;35;7503;-77
2022/09/11 00:05:38;;;;;;;356.25;314.98;;;;;;;24.63;70.74;99205.63;2494043;27;20282;-76
2022/09/11 00:05:49;;;;;;;471.42;425.73;;;;;;;24.62;70.76;99201.28;351081;28;1547;-76
2022/09/11 00:06:03;;;;;;;471.95;426.45;;;;;;;24.62;70.47;99209.28;347382;28;1191;-76
2022/09/11 00:06:16;;;;;;;468.92;423.80;;;;;;;24.60;70.94;99205.94;347351;28;1417;-76
2022/09/11 00:06:26;;;;;;;463.33;418.23;;;;;;;24.59;70.92;99201.59;347407;28;1368;-76
2022/09/11 00:06:37;;;;;;;462.90;417.77;;;;;;;24.60;70.83;99202.44;346020;28;1236;-76
2022/09/11 00:06:49;;;;;;;463.60;418.35;;;;;;;24.59;70.54;99206.94;345990;28;856;-76
2022/09/11 00:07:00;;;;;;;464.00;418.73;;;;;;;24.60;70.74;99205.94;346585;28;907;-76
2022/09/11 00:07:10;;;;;;;468.00;422.58;;;;;;;24.60;70.79;99203.28;346079;28;1268;-76
2022/09/11 00:07:20;;;;;;;468.00;422.47;;;;;;;24.60;70.68;99205.94;347274;28;1430;-76
2022/09/11 00:07:31;;;;;;;470.35;424.83;;;;;;;24.59;70.57;99200.75;346126;28;852;-76
2022/09/11 00:07:41;;;;;;;471.70;425.97;;;;;;;24.58;70.77;99205.25;346151;28;817;-76
2022/09/11 00:07:52;;;;;;;473.67;428.07;;;;;;;24.58;70.60;99205.25;347404;28;1228;-76
2022/09/11 00:08:02;;;;;;;469.98;424.45;;;;;;;24.59;70.77;99206.94;348752;28;1596;-76
2022/09/11 00:08:15;;;;;;;468.60;422.97;;;;;;;24.58;70.56;99199.06;350244;28;1185;-77
2022/09/11 00:08:26;;;;;;;470.45;424.65;;;;;;;24.58;70.62;99205.25;350274;28;943;-77
2022/09/11 00:08:37;;;;;;;470.20;424.57;;;;;;;24.60;70.66;99208.63;347225;28;1235;-77
2022/09/11 00:08:56;;;;;;;465.38;420.00;;;;;;;24.61;70.56;99204.09;346089;28;1247;-77
2022/09/11 00:09:06;;;;;;;465.52;420.13;;;;;;;24.59;70.50;99206.94;345865;28;1470;-77
2022/09/11 00:09:17;;;;;;;465.48;420.23;;;;;;;24.58;70.78;99202.59;346035;28;974;-77
2022/09/11 00:09:27;;;;;;;464.70;419.43;;;;;;;24.58;70.72;99207.09;347194;28;1195;-77
2022/09/11 00:09:37;;;;;;;467.40;422.13;;;;;;;24.58;70.99;99205.25;347502;28;833;-77
2022/09/11 00:09:48;;;;;;;472.40;426.85;;;;;;;24.59;70.67;99200.75;345538;28;1848;-77
2022/09/11 00:09:58;;;;;;;479.30;433.33;;;;;;;24.58;70.93;99210.63;349236;28;1470;-77
2022/09/11 00:10:09;;;;;;;468.27;422.50;;;;;;;24.59;70.80;99212.28;348757;28;1214;-77
2022/09/11 00:10:19;;;;;;;468.93;423.17;;;;;;;24.60;70.50;99205.09;349261;28;1193;-77
2022/09/11 00:10:31;;;;;;;460.30;414.90;;;;;;;24.60;70.60;99211.28;346593;28;1710;-77
2022/09/11 00:10:41;;;;;;;460.88;415.52;;;;;;;24.60;70.68;99205.94;343317;28;1518;-77
2022/09/11 00:10:52;;;;;;;465.05;419.55;;;;;;;24.61;70.52;99209.47;344646;28;1381;-77
2022/09/11 00:11:04;;;;;;;471.07;425.43;;;;;;;24.59;70.69;99209.63;344723;28;920;-77
2022/09/11 00:11:16;;;;;;;478.10;432.40;;;;;;;24.59;70.73;99206.09;343317;28;988;-77
2022/09/11 00:11:28;;;;;;;480.25;434.38;;;;;;;24.57;70.78;99211.63;341879;28;1456;-77
2022/09/11 00:11:42;;;;;;;478.52;432.65;;;;;;;24.57;70.81;99208.94;340698;29;1289;-77
2022/09/11 00:11:52;;;;;;;464.23;418.58;;;;;;;24.58;70.85;99209.78;341935;28;1538;-77
2022/09/11 00:12:02;;;;;;;460.48;415.02;;;;;;;24.59;70.89;99211.47;342333;28;2263;-76
2022/09/11 00:12:13;;;;;;;466.93;421.23;;;;;;;24.58;70.90;99215.97;342951;28;1883;-76
2022/09/11 00:12:23;;;;;;;470.48;424.75;;;;;;;24.58;70.67;99210.63;343467;28;837;-77
2022/09/11 00:12:34;;;;;;;468.93;423.27;;;;;;;24.58;70.66;99207.94;344406;28;1299;-77
2022/09/11 00:12:44;;;;;;;466.13;420.77;;;;;;;24.59;70.43;99204.25;344706;28;1022;-77
2022/09/11 00:12:55;;;;;;;468.30;422.77;;;;;;;24.58;70.59;99205.25;341991;28;1210;-77
2022/09/11 00:13:10;;;;;;;467.85;422.27;;;;;;;24.58;70.59;99210.63;342012;28;1208;-75
2022/09/11 00:13:21;;;;;;;468.35;422.75;;;;;;;24.59;70.53;99206.94;341850;28;838;-76
2022/09/11 00:13:31;;;;;;;475.25;429.38;;;;;;;24.58;70.56;99207.09;342579;28;1774;-76
2022/09/11 00:13:43;;;;;;;470.67;424.97;;;;;;;24.58;70.77;99209.78;341310;28;1627;-77
2022/09/11 00:13:53;;;;;;;469.33;423.73;;;;;;;24.57;70.52;99211.63;342182;28;912;-77
2022/09/11 00:14:04;;;;;;;464.03;418.60;;;;;;;24.58;70.69;99215.13;344096;28;1648;-77
2022/09/11 00:14:14;;;;;;;471.15;425.73;;;;;;;24.55;70.55;99208.25;343178;28;2952;-77
2022/09/11 00:14:27;;;;;;;470.97;425.53;;;;;;;24.56;70.66;99201.06;339851;28;2831;-77
2022/09/11 00:14:39;;;;;;;472.52;426.92;;;;;;;24.57;70.69;99211.63;336658;29;2659;-77
2022/09/11 00:14:50;;;;;;;472.88;426.95;;;;;;;24.57;70.37;99214.28;336410;29;2017;-77
2022/09/11 00:15:01;;;;;;;472.35;426.58;;;;;;;24.57;70.77;99208.94;339162;29;3022;-77
2022/09/11 00:15:11;;;;;;;474.48;428.70;;;;;;;24.57;70.52;99202.75;340387;29;1023;-77
2022/09/11 00:15:21;;;;;;;465.37;419.80;;;;;;;24.59;70.32;99211.47;336188;29;1544;-77
2022/09/11 00:15:38;;;;;;;457.30;412.00;;;;;;;24.57;70.70;99208.94;330785;29;1562;-77
2022/09/11 00:15:49;;;;;;;444.17;399.48;;;;;;;24.58;70.49;99209.78;331092;29;2128;-77
2022/09/11 00:16:01;;;;;;;454.33;409.23;;;;;;;24.55;70.61;99210.94;331806;29;1877;-77
2022/09/11 00:16:32;;;;;;;463.08;417.70;;;;;;;24.55;70.35;99210.94;334982;29;1623;-76
2022/09/11 00:16:44;;;;;;;477.50;431.65;;;;;;;24.56;70.64;99209.94;334516;29;1597;-76
2022/09/11 00:16:54;;;;;;;475.05;428.98;;;;;;;24.56;70.71;99212.63;335791;29;1495;-76
2022/09/11 00:17:05;;;;;;;478.58;432.33;;;;;;;24.56;70.61;99207.25;334062;29;1196;-76
2022/09/11 00:17:17;;;;;;;476.67;430.73;;;;;;;24.54;70.31;99206.59;334814;29;994;-76
2022/09/11 00:17:27;;;;;;;471.52;425.58;;;;;;;24.56;70.48;99207.25;335274;29;1728;-76
2022/09/11 00:17:37;;;;;;;462.50;416.90;;;;;;;24.56;70.47;99215.28;335322;29;1767;-76
2022/09/11 00:17:48;;;;;;;467.17;421.30;;;;;;;24.55;70.58;99205.59;334345;29;2200;-76
2022/09/11 00:17:58;;;;;;;471.87;426.10;;;;;;;24.53;70.65;99207.59;332450;29;1989;-76
2022/09/11 00:18:12;;;;;;;474.50;428.52;;;;;;;24.52;70.38;99212.09;332905;29;1183;-76
2022/09/11 00:18:22;;;;;;;465.95;420.40;;;;;;;24.51;70.74;99210.41;330576;29;974;-76
2022/09/11 00:18:34;;;;;;;469.65;423.92;;;;;;;24.48;70.30;99207.22;328810;29;1902;-76
2022/09/11 00:18:45;;;;;;;478.00;432.08;;;;;;;24.49;70.57;99211.59;327682;29;2146;-76
2022/09/11 00:18:57;;;;;;;481.02;434.83;;;;;;;24.48;70.32;99204.56;326871;30;908;-76
2022/09/11 00:19:10;;;;;;;473.05;427.17;;;;;;;24.48;70.64;99209.91;319438;30;1296;-77
2022/09/11 00:19:21;;;;;;;470.30;424.65;;;;;;;24.47;70.69;99214.41;324378;30;1397;-77
2022/09/11 00:19:31;;;;;;;470.00;424.40;;;;;;;24.49;70.89;99211.59;325069;30;1802;-77
2022/09/11 00:19:42;;;;;;;479.48;433.58;;;;;;;24.51;70.46;99209.59;321632;30;2343;-77
2022/09/11 00:19:52;;;;;;;476.57;430.60;;;;;;;24.51;70.55;99209.59;323004;30;1936;-77
2022/09/11 00:20:03;;;;;;;475.55;429.58;;;;;;;24.52;70.57;99208.59;320349;30;2728;-77
2022/09/11 00:20:14;;;;;;;476.23;430.33;;;;;;;24.52;70.42;99201.41;319698;30;3045;-76
2022/09/11 00:20:24;;;;;;;476.57;430.63;;;;;;;24.52;70.49;99212.09;319647;30;1079;-76
2022/09/11 00:20:34;;;;;;;476.13;430.30;;;;;;;24.52;70.34;99205.91;319791;30;3029;-76
2022/09/11 00:20:49;;;;;;;474.20;428.50;;;;;;;24.52;70.48;99205.91;316639;30;2706;-76
2022/09/11 00:21:00;;;;;;;482.73;436.83;;;;;;;24.53;70.76;99210.25;315187;30;2986;-77
2022/09/11 00:21:10;;;;;;;483.40;437.40;;;;;;;24.53;70.30;99202.22;317352;31;1224;-77
2022/09/11 00:21:20;;;;;;;479.87;434.00;;;;;;;24.50;70.49;99203.41;317770;30;2910;-77
2022/09/11 00:21:31;;;;;;;481.17;435.33;;;;;;;24.52;70.29;99205.91;319172;30;1652;-77
2022/09/11 00:21:41;;;;;;;481.90;436.08;;;;;;;24.52;70.51;99211.25;319476;30;2526;-77
2022/09/11 00:21:56;;;;;;;474.13;428.37;;;;;;;24.47;69.94;99206.38;317415;31;887;-77
2022/09/11 00:22:06;;;;;;;470.58;424.65;;;;;;;24.38;70.77;99209.19;312386;31;2008;-77
2022/09/11 00:22:16;;;;;;;482.90;436.77;;;;;;;24.36;71.01;99200.47;313993;31;3241;-77
2022/09/11 00:22:27;;;;;;;479.33;433.33;;;;;;;24.36;70.98;99203.16;312459;31;3932;-77
2022/09/11 00:22:38;;;;;;;489.08;442.92;;;;;;;24.37;70.96;99204.84;313867;31;1258;-76
2022/09/11 00:22:48;;;;;;;484.70;438.63;;;;;;;24.38;71.11;99206.50;311243;31;4213;-76
2022/09/11 00:23:03;;;;;;;485.37;439.20;;;;;;;24.37;71.17;99208.34;309834;31;3625;-76
2022/09/11 00:23:16;;;;;;;479.27;433.38;;;;;;;24.32;70.82;99207.16;310066;31;3619;-76
2022/09/11 00:23:27;;;;;;;482.80;437.05;;;;;;;24.26;71.17;99207.81;308375;31;3016;-76
2022/09/11 00:23:37;;;;;;;478.38;432.65;;;;;;;24.26;71.25;99205.16;314516;31;5109;-76
2022/09/11 00:23:48;;;;;;;490.13;444.03;;;;;;;24.27;71.02;99207.63;314876;31;2265;-76
2022/09/11 00:23:59;;;;;;;492.13;445.83;;;;;;;24.28;70.91;99203.13;312391;31;2743;-76
2022/09/11 00:24:10;;;;;;;497.67;451.30;;;;;;;24.30;71.17;99201.13;308905;31;5523;-76
2022/09/11 00:24:20;;;;;;;496.95;450.60;;;;;;;24.32;70.84;99210.66;303968;32;3555;-76
2022/09/11 00:24:31;;;;;;;502.20;455.87;;;;;;;24.31;71.17;99203.63;304901;31;4603;-76
2022/09/11 00:24:43;;;;;;;500.85;454.58;;;;;;;24.32;71.28;99205.31;306333;32;840;-76
2022/09/11 00:24:53;;;;;;;498.73;452.48;;;;;;;24.33;70.81;99201.63;295134;33;1551;-76
2022/09/11 00:25:04;;;;;;;499.30;452.95;;;;;;;24.33;70.95;99201.63;295710;33;4610;-76
2022/09/11 00:25:15;;;;;;;503.27;456.88;;;;;;;24.33;70.99;99198.97;297394;32;5661;-76
2022/09/11 00:25:25;;;;;;;503.90;457.50;;;;;;;24.35;71.09;99206.84;299503;32;949;-76
2022/09/11 00:25:39;;;;;;;508.37;461.73;;;;;;;24.33;70.93;99206.16;299286;32;4900;-76
2022/09/11 00:25:50;;;;;;;514.17;467.52;;;;;;;24.31;70.71;99205.47;295930;33;3910;-77
2022/09/11 00:26:01;;;;;;;509.63;463.07;;;;;;;24.31;70.90;99203.63;293349;33;3026;-77
2022/09/11 00:26:12;;;;;;;507.38;461.13;;;;;;;24.31;70.98;99206.31;291276;33;4625;-76
2022/09/11 00:26:23;;;;;;;503.33;457.23;;;;;;;24.32;70.91;99202.63;291941;33;1226;-76
2022/09/11 00:26:34;;;;;;;498.85;452.67;;;;;;;24.33;70.80;99201.63;288497;33;5778;-76
2022/09/11 00:26:46;;;;;;;493.30;447.10;;;;;;;24.34;70.98;99197.97;286439;34;5255;-76
2022/09/11 00:26:57;;;;;;;488.75;442.60;;;;;;;24.33;70.88;99200.81;284465;33;9882;-76
2022/09/11 00:27:07;;;;;;;490.27;444.20;;;;;;;24.33;70.87;99200.81;290042;34;1296;-75
2022/09/11 00:27:18;;;;;;;499.92;453.58;;;;;;;24.31;70.98;99200.97;288464;34;6600;-77
2022/09/11 00:27:28;;;;;;;505.07;458.67;;;;;;;24.31;71.08;99198.28;287871;34;8711;-77
2022/09/11 00:27:38;;;;;;;496.33;450.10;;;;;;;24.32;71.02;99193.78;287340;34;1352;-77
2022/09/11 00:27:50;;;;;;;495.37;449.10;;;;;;;24.31;70.81;99195.63;281952;34;8124;-76
2022/09/11 00:28:01;;;;;;;492.35;446.05;;;;;;;24.28;70.78;99192.41;281084;34;5847;-76
2022/09/11 00:30:04;;;;;;;433.61;384.57;;;;;;;24.28;70.88;99205.78;2501014;27;20495;-77
2022/09/11 00:30:14;;;;;;;497.20;451.00;;;;;;;24.29;70.90;99199.44;350437;28;1214;-77
2022/09/11 00:30:24;;;;;;;500.20;453.88;;;;;;;24.30;70.88;99207.31;349472;28;1357;-77
2022/09/11 00:30:35;;;;;;;501.03;454.60;;;;;;;24.31;71.29;99211.66;348828;28;1484;-77
2022/09/11 00:30:46;;;;;;;494.17;447.98;;;;;;;24.30;70.93;99201.97;348897;28;1305;-77
2022/09/11 00:31:04;;;;;;;490.98;445.00;;;;;;;24.31;70.83;99205.47;348193;28;1213;-77
2022/09/11 00:31:19;;;;;;;492.38;446.38;;;;;;;24.31;70.90;99205.47;347517;28;868;-77
2022/09/11 00:31:31;;;;;;;493.13;447.05;;;;;;;24.31;70.66;99206.31;350077;28;1428;-77
2022/09/11 00:31:41;;;;;;;495.52;449.42;;;;;;;24.33;70.84;99206.16;347732;28;1309;-77
2022/09/11 00:31:51;;;;;;;498.80;452.80;;;;;;;24.33;70.95;99203.47;349180;28;1636;-77
2022/09/11 00:32:02;;;;;;;508.83;462.57;;;;;;;24.32;70.86;99208.00;348660;28;1235;-77
2022/09/11 00:32:14;;;;;;;507.30;460.98;;;;;;;24.33;70.92;99211.50;347326;28;1238;-77
2022/09/11 00:32:24;;;;;;;496.00;449.77;;;;;;;24.31;71.04;99206.31;347787;28;966;-77
2022/09/11 00:32:35;;;;;;;492.33;446.07;;;;;;;24.32;70.82;99207.16;348673;28;3658;-76
2022/09/11 00:32:45;;;;;;;491.75;445.48;;;;;;;24.31;70.88;99202.78;348129;28;4794;-76
2022/09/11 00:32:56;;;;;;;504.10;457.40;;;;;;;24.32;70.69;99204.47;349904;28;2920;-76
2022/09/11 00:33:06;;;;;;;506.90;460.02;;;;;;;24.32;70.87;99204.47;348618;28;1850;-76
2022/09/11 00:33:18;;;;;;;503.92;457.17;;;;;;;24.31;70.99;99202.78;347404;28;3106;-76
2022/09/11 00:33:29;;;;;;;501.90;455.33;;;;;;;24.30;71.14;99201.97;347391;28;1280;-77
2022/09/11 00:33:39;;;;;;;506.85;460.30;;;;;;;24.32;71.15;99209.81;347319;28;858;-77
2022/09/11 00:33:50;;;;;;;504.87;458.43;;;;;;;24.31;71.14;99203.63;350112;28;1492;-76
2022/09/11 00:34:00;;;;;;;495.92;449.90;;;;;;;24.32;70.88;99202.63;351278;28;1102;-76
2022/09/11 00:34:11;;;;;;;496.30;450.05;;;;;;;24.31;70.69;99202.78;351569;28;1006;-76
2022/09/11 00:34:21;;;;;;;496.17;449.97;;;;;;;24.29;71.00;99204.78;347814;28;1272;-77
2022/09/11 00:34:32;;;;;;;502.58;456.17;;;;;;;24.30;70.90;99209.16;347001;28;1402;-76
2022/09/11 00:34:43;;;;;;;496.77;450.67;;;;;;;24.30;70.78;99206.47;347394;28;1298;-77
2022/09/11 00:34:54;;;;;;;494.23;448.02;;;;;;;24.31;71.02;99202.78;346387;28;2094;-76
2022/09/11 00:35:05;;;;;;;492.25;446.13;;;;;;;24.29;70.82;99197.59;348684;28;872;-77
2022/09/11 00:35:15;;;;;;;489.38;443.45;;;;;;;24.30;70.88;99201.97;347443;28;1319;-76
2022/09/11 00:35:26;;;;;;;492.67;446.58;;;;;;;24.31;70.92;99203.63;349259;28;1381;-76
2022/09/11 00:35:36;;;;;;;488.87;442.70;;;;;;;24.32;70.88;99204.47;347438;28;1206;-76
2022/09/11 00:35:59;;;;;;;492.92;446.65;;;;;;;24.32;70.86;99202.63;345913;28;1240;-76
2022/09/11 00:36:16;;;;;;;496.75;450.48;;;;;;;24.34;70.92;99203.31;343652;28;1491;-76
2022/09/11 00:36:28;;;;;;;489.88;443.92;;;;;;;24.33;70.99;99201.63;345858;28;1422;-76
2022/09/11 00:36:40;;;;;;;491.25;445.40;;;;;;;24.33;70.78;99200.81;340502;28;1328;-76
2022/09/11 00:36:52;;;;;;;498.65;452.33;;;;;;;24.33;70.91;99206.16;339511;29;838;-76
2022/09/11 00:37:02;;;;;;;497.13;450.75;;;;;;;24.33;71.08;99206.16;335502;29;811;-76
2022/09/11 00:37:13;;;;;;;502.40;456.08;;;;;;;24.33;70.66;99204.31;334904;29;1479;-77
2022/09/11 00:37:23;;;;;;;497.23;451.17;;;;;;;24.34;71.04;99208.66;338041;29;1311;-77
2022/09/11 00:37:33;;;;;;;499.25;452.95;;;;;;;24.33;71.16;99207.00;339390;29;1420;-77
2022/09/11 00:37:44;;;;;;;495.27;448.80;;;;;;;24.34;70.90;99199.81;341454;28;1414;-76
2022/09/11 00:37:54;;;;;;;495.53;448.83;;;;;;;24.34;70.73;99203.31;340183;28;1554;-76
2022/09/11 00:38:08;;;;;;;489.25;442.85;;;;;;;24.35;71.10;99204.16;341346;29;1570;-76
2022/09/11 00:38:19;;;;;;;489.20;443.00;;;;;;;24.34;70.76;99200.66;334283;29;873;-76
2022/09/11 00:38:31;;;;;;;492.88;446.58;;;;;;;24.34;70.85;99205.16;334703;29;1418;-76
2022/09/11 00:38:42;;;;;;;492.27;445.95;;;;;;;24.34;70.82;99205.16;335384;29;1862;-76
2022/09/11 00:38:52;;;;;;;492.00;445.53;;;;;;;24.31;71.15;99203.63;333594;29;1984;-76
2022/09/11 00:39:03;;;;;;;499.10;452.25;;;;;;;24.31;70.70;99200.13;331758;29;929;-76
2022/09/11 00:39:13;;;;;;;494.27;447.53;;;;;;;24.29;70.92;99199.44;334326;29;1223;-76
2022/09/11 00:39:23;;;;;;;486.88;440.40;;;;;;;24.28;70.89;99201.28;332718;29;1529;-76
2022/09/11 00:39:34;;;;;;;487.93;441.67;;;;;;;24.29;71.10;99210.16;329208;29;4044;-76
2022/09/11 00:39:46;;;;;;;491.95;445.70;;;;;;;24.27;71.10;99204.94;330117;29;5368;-76
2022/09/11 00:39:56;;;;;;;498.63;452.13;;;;;;;24.27;71.36;99201.44;332378;29;1701;-76
2022/09/11 00:40:07;;;;;;;492.93;446.47;;;;;;;24.28;71.04;99203.13;331805;29;2138;-76
2022/09/11 00:40:18;;;;;;;493.45;447.27;;;;;;;24.27;71.10;99202.28;323208;30;3355;-76
2022/09/11 00:40:28;;;;;;;489.48;443.33;;;;;;;24.26;71.17;99205.94;328500;29;1885;-76
2022/09/11 00:40:45;;;;;;;491.73;445.33;;;;;;;24.26;70.98;99202.47;329942;29;2103;-76
2022/09/11 00:40:57;;;;;;;484.73;438.50;;;;;;;24.27;71.30;99201.44;325877;30;1716;-77
2022/09/11 00:41:11;;;;;;;491.15;444.95;;;;;;;24.27;70.95;99212.13;319618;30;1922;-76
2022/09/11 00:41:29;;;;;;;492.67;446.55;;;;;;;24.28;70.89;99211.13;318382;31;1494;-76
2022/09/11 00:41:41;;;;;;;490.20;444.23;;;;;;;24.28;70.77;99211.97;316973;31;1100;-76
2022/09/11 00:41:52;;;;;;;496.83;450.58;;;;;;;24.26;71.17;99205.16;317382;30;1372;-76
2022/09/11 00:42:04;;;;;;;494.10;447.95;;;;;;;24.27;71.20;99206.78;315393;31;2073;-76
2022/09/11 00:42:14;;;;;;;498.48;452.33;;;;;;;24.25;70.94;99206.09;315512;30;2347;-76
2022/09/11 00:42:25;;;;;;;504.30;458.02;;;;;;;24.25;71.22;99204.31;311437;31;2346;-76
2022/09/11 00:42:35;;;;;;;503.80;457.47;;;;;;;24.24;71.11;99207.09;310601;31;1291;-76
2022/09/11 00:42:53;;;;;;;498.20;451.83;;;;;;;24.23;71.17;99205.44;310197;31;2596;-76
2022/09/11 00:43:08;;;;;;;490.13;443.80;;;;;;;24.23;71.23;99208.09;307126;32;1480;-76
2022/09/11 00:43:19;;;;;;;489.92;443.58;;;;;;;24.21;71.05;99206.44;309441;32;955;-76
2022/09/11 00:43:47;;;;;;;490.90;444.57;;;;;;;24.21;71.05;99203.75;308251;32;1372;-76
2022/09/11 00:44:03;;;;;;;492.00;445.65;;;;;;;24.24;71.20;99205.28;307835;31;2693;-76
2022/09/11 00:44:16;;;;;;;486.17;440.08;;;;;;;24.24;71.27;99201.75;308552;31;2545;-76
2022/09/11 00:44:27;;;;;;;489.00;442.95;;;;;;;24.24;71.33;99209.78;309957;31;2992;-76
2022/09/11 00:44:37;;;;;;;497.57;451.33;;;;;;;24.23;71.16;99205.44;309836;31;1228;-76
2022/09/11 00:44:47;;;;;;;492.27;446.20;;;;;;;24.23;71.26;99211.63;304253;32;1006;-76
2022/09/11 00:45:00;;;;;;;490.23;444.13;;;;;;;24.24;71.10;99202.59;303869;32;3555;-76
2022/09/11 00:45:24;;;;;;;485.70;439.75;;;;;;;24.24;71.45;99207.09;302751;32;3062;-76
2022/09/11 00:45:34;;;;;;;493.38;447.33;;;;;;;24.24;71.22;99207.09;297834;33;1312;-76
2022/09/11 00:45:45;;;;;;;489.58;443.60;;;;;;;24.20;71.30;99202.06;299012;32;2242;-77
2022/09/11 00:45:58;;;;;;;486.40;440.53;;;;;;;24.21;71.11;99205.59;298987;32;2529;-76
2022/09/11 00:46:08;;;;;;;487.60;441.60;;;;;;;24.20;71.53;99207.44;293973;33;3026;-76
2022/09/11 00:46:19;;;;;;;480.63;434.77;;;;;;;24.21;71.10;99208.25;291872;33;1631;-76
2022/09/11 00:46:45;;;;;;;486.17;440.20;;;;;;;24.21;71.25;99203.75;291066;33;3852;-76
2022/09/11 00:47:00;;;;;;;484.48;438.67;;;;;;;24.19;71.44;99204.91;290787;33;4444;-76
2022/09/11 00:47:11;;;;;;;487.75;441.77;;;;;;;24.18;71.38;99209.41;291737;33;4409;-76
2022/09/11 00:47:22;;;;;;;495.40;449.13;;;;;;;24.18;71.33;99200.56;292113;33;833;-76
2022/09/11 00:47:32;;;;;;;496.23;449.83;;;;;;;24.18;71.19;99201.41;291682;33;5298;-76
2022/09/11 00:47:42;;;;;;;487.67;441.33;;;;;;;24.19;71.22;99204.91;288857;33;4078;-77
2022/09/11 00:47:57;;;;;;;487.80;441.53;;;;;;;24.20;71.21;99203.91;287572;34;2432;-75
2022/09/11 00:48:07;;;;;;;501.02;454.75;;;;;;;24.20;71.11;99204.75;286347;34;2026;-75
2022/09/11 00:48:19;;;;;;;500.40;454.20;;;;;;;24.20;71.07;99201.25;280010;35;1132;-75
2022/09/11 00:48:30;;;;;;;498.13;451.92;;;;;;;24.19;71.18;99202.22;285021;34;5048;-75
2022/09/11 00:48:41;;;;;;;498.63;452.33;;;;;;;24.20;71.21;99206.59;284043;34;5843;-75
2022/09/11 00:48:51;;;;;;;496.50;450.25;;;;;;;24.19;71.12;99203.06;281356;35;3052;-75
2022/09/11 00:49:06;;;;;;;501.83;455.23;;;;;;;24.18;71.29;99200.56;280671;34;6404;-76
2022/09/11 00:49:26;;;;;;;508.42;461.33;;;;;;;24.20;71.36;99204.75;283134;34;6452;-77
2022/09/11 00:49:41;;;;;;;503.80;457.10;;;;;;;24.20;71.18;99195.88;281780;35;926;-77
2022/09/11 00:49:53;;;;;;;502.05;455.73;;;;;;;24.19;71.19;99195.06;280657;35;1906;-77
2022/09/11 00:50:14;;;;;;;494.10;447.92;;;;;;;24.20;71.18;99201.25;273107;36;1543;-77
2022/09/11 00:50:25;;;;;;;499.80;453.30;;;;;;;24.19;70.94;99199.56;272131;36;6160;-77
2022/09/11 00:50:36;;;;;;;507.73;461.10;;;;;;;24.19;71.53;99203.06;270388;36;1443;-77
2022/09/11 00:50:47;;;;;;;508.77;462.07;;;;;;;24.18;71.03;99201.41;269132;36;7198;-77
2022/09/11 00:50:58;;;;;;;509.90;463.20;;;;;;;24.18;71.40;99204.06;269594;36;8101;-77
2022/09/11 00:51:09;;;;;;;503.17;456.70;;;;;;;24.19;71.20;99200.41;271288;36;9677;-77
2022/09/11 00:51:21;;;;;;;498.92;452.70;;;;;;;24.17;71.06;99199.72;270085;36;805;-77
2022/09/11 00:53:16;;;;;;;384.87;343.07;;;;;;;24.15;71.25;99199.03;2501851;27;20714;-76
2022/09/11 00:53:28;;;;;;;501.13;454.83;;;;;;;24.14;71.10;99200.03;352877;28;1668;-76
2022/09/11 00:53:39;;;;;;;505.23;458.58;;;;;;;24.14;70.97;99200.03;350236;28;995;-76
2022/09/11 00:53:50;;;;;;;507.33;460.67;;;;;;;24.13;71.51;99208.22;348900;28;1301;-76
2022/09/11 00:54:01;;;;;;;507.58;461.05;;;;;;;24.11;71.54;99195.00;347189;28;1224;-76
2022/09/11 00:54:11;;;;;;;504.27;457.90;;;;;;;24.12;71.34;99201.19;347399;28;1223;-77
2022/09/11 00:54:27;;;;;;;498.73;452.43;;;;;;;24.13;71.23;99203.69;344715;28;788;-77
2022/09/11 00:54:45;;;;;;;496.52;450.23;;;;;;;24.10;71.33;99201.34;344746;28;961;-77
2022/09/11 00:54:59;;;;;;;507.20;460.52;;;;;;;24.09;71.34;99199.66;347361;28;1882;-77
2022/09/11 00:55:11;;;;;;;504.00;457.33;;;;;;;24.07;71.63;99195.47;348732;28;985;-76
2022/09/11 00:55:26;;;;;;;502.38;455.75;;;;;;;24.07;71.64;99196.31;348664;28;1435;-76
2022/09/11 00:55:36;;;;;;;499.20;452.58;;;;;;;24.09;71.14;99199.66;348902;28;1651;-76
2022/09/11 00:55:50;;;;;;;496.60;450.27;;;;;;;24.10;71.49;99201.34;348804;28;1228;-76
2022/09/11 00:56:06;;;;;;;505.20;458.80;;;;;;;24.08;71.26;99195.31;346081;28;856;-76
2022/09/11 00:56:16;;;;;;;517.70;470.95;;;;;;;24.09;71.31;99197.00;347353;28;1232;-76
2022/09/11 00:56:28;;;;;;;510.63;464.13;;;;;;;24.09;71.47;99206.84;348139;28;1023;-76
2022/09/11 00:56:38;;;;;;;516.08;469.42;;;;;;;24.10;71.19;99203.19;348895;28;1019;-76
2022/09/11 00:56:49;;;;;;;522.40;475.50;;;;;;;24.08;71.13;99198.00;348579;28;1438;-76
2022/09/11 00:57:01;;;;;;;525.42;478.42;;;;;;;24.07;71.26;99203.50;348183;28;1296;-76
2022/09/11 00:57:12;;;;;;;519.47;472.77;;;;;;;24.08;71.35;99203.34;347434;28;940;-75
2022/09/11 00:57:24;;;;;;;517.90;471.13;;;;;;;24.07;71.59;99196.31;344723;28;1443;-76
2022/09/11 00:57:57;;;;;;;516.17;469.35;;;;;;;24.07;71.34;99199.00;346257;28;1036;-76
2022/09/11 00:58:11;;;;;;;507.38;461.08;;;;;;;24.09;71.53;99198.84;345683;28;2931;-76
2022/09/11 00:58:24;;;;;;;510.15;463.40;;;;;;;24.08;71.30;99198.00;348760;28;1782;-77
2022/09/11 00:58:36;;;;;;;507.98;461.08;;;;;;;24.05;71.48;99200.97;341770;28;2641;-76
2022/09/11 00:58:47;;;;;;;503.40;456.60;;;;;;;24.06;71.56;99201.81;348733;28;1470;-76
2022/09/11 00:58:57;;;;;;;500.77;454.27;;;;;;;24.04;71.37;99199.31;350201;28;866;-76
2022/09/11 00:59:08;;;;;;;504.17;457.65;;;;;;;24.05;71.30;99205.50;347892;28;1284;-76
2022/09/11 00:59:19;;;;;;;504.23;457.83;;;;;;;24.04;71.13;99201.97;344628;28;845;-76
2022/09/11 00:59:30;;;;;;;506.90;460.45;;;;;;;24.02;71.69;99193.28;331866;29;1960;-75
2022/09/11 00:59:41;;;;;;;511.58;465.10;;;;;;;24.04;71.27;99193.97;332427;29;1549;-77
2022/09/11 00:59:53;;;;;;;509.08;462.50;;;;;;;24.04;71.36;99196.63;336825;29;1577;-77